createdAt,value
2022-07-29T00:00:09.865Z,0.00
2022-07-29T00:01:07.886Z,0.00
2022-07-29T00:02:08.853Z,0.00
2022-07-29T00:03:07.891Z,0.00
2022-07-29T00:04:07.897Z,0.00
2022-07-29T00:05:07.845Z,0.00
2022-07-29T00:06:07.844Z,0.00
2022-07-29T00:07:07.814Z,0.00
2022-07-29T00:08:10.749Z,0.00
2022-07-29T00:09:08.798Z,0.00
2022-07-29T00:10:07.801Z,0.00
2022-07-29T00:11:07.815Z,0.00
2022-07-29T00:12:07.777Z,0.00
2022-07-29T00:13:07.766Z,0.00
2022-07-29T00:14:07.811Z,0.00
2022-07-29T00:15:07.752Z,0.00
2022-07-29T00:16:07.808Z,0.00
2022-07-29T00:17:07.744Z,0.00
2022-07-29T00:18:07.736Z,0.00
2022-07-29T00:19:07.944Z,0.00
2022-07-29T00:20:07.709Z,0.00
2022-07-29T00:21:07.733Z,0.00
2022-07-29T00:22:07.705Z,0.00
2022-07-29T00:23:07.691Z,0.00
2022-07-29T00:24:08.689Z,0.00
2022-07-29T00:25:07.675Z,0.00
2022-07-29T00:26:07.708Z,0.00
2022-07-29T00:27:07.666Z,0.00
2022-07-29T00:28:07.656Z,0.00
2022-07-29T00:29:33.073Z,0.00
2022-07-29T00:30:09.639Z,0.00
2022-07-29T00:31:07.694Z,0.00
2022-07-29T00:32:07.651Z,0.00
2022-07-29T00:33:09.180Z,0.00
2022-07-29T00:34:08.605Z,0.00
2022-07-29T00:35:07.603Z,0.00
2022-07-29T00:36:07.618Z,0.00
2022-07-29T00:37:07.859Z,0.00
2022-07-29T00:38:07.577Z,0.00
2022-07-29T00:39:07.572Z,0.00
2022-07-29T00:40:07.562Z,0.00
2022-07-29T00:41:07.578Z,0.00
2022-07-29T00:42:07.545Z,0.00
2022-07-29T00:43:07.537Z,0.00
2022-07-29T00:44:07.531Z,0.00
2022-07-29T00:45:07.515Z,0.00
2022-07-29T00:46:08.546Z,0.00
2022-07-29T00:47:07.627Z,0.00
2022-07-29T00:48:07.540Z,0.00
2022-07-29T00:49:07.553Z,0.00
2022-07-29T00:50:07.487Z,0.00
2022-07-29T00:51:07.514Z,0.00
2022-07-29T00:52:07.484Z,0.00
2022-07-29T00:53:07.465Z,0.00
2022-07-29T00:54:07.457Z,0.00
2022-07-29T00:55:08.727Z,0.00
2022-07-29T00:56:08.501Z,0.00
2022-07-29T00:57:07.437Z,0.00
2022-07-29T00:58:07.433Z,0.00
2022-07-29T00:59:07.420Z,0.00
2022-07-29T01:00:07.412Z,0.00
2022-07-29T01:01:07.479Z,0.00
2022-07-29T01:02:07.449Z,0.00
2022-07-29T01:03:07.392Z,0.00
2022-07-29T01:04:07.381Z,0.00
2022-07-29T01:05:07.381Z,0.00
2022-07-29T01:06:07.384Z,0.00
2022-07-29T01:07:07.383Z,0.00
2022-07-29T01:08:07.352Z,0.00
2022-07-29T01:09:07.353Z,0.00
2022-07-29T01:10:07.341Z,0.00
2022-07-29T01:11:07.326Z,0.00
2022-07-29T01:12:07.353Z,0.00
2022-07-29T01:13:08.524Z,0.00
2022-07-29T01:14:07.311Z,0.00
2022-07-29T01:15:07.300Z,0.00
2022-07-29T01:16:07.379Z,0.00
2022-07-29T01:17:07.313Z,0.00
2022-07-29T01:18:07.277Z,0.00
2022-07-29T01:19:39.918Z,0.00
2022-07-29T01:20:07.272Z,0.00
2022-07-29T01:21:07.259Z,0.00
2022-07-29T01:22:07.278Z,0.00
2022-07-29T01:23:07.246Z,0.00
2022-07-29T01:24:07.233Z,0.00
2022-07-29T01:25:07.229Z,0.00
2022-07-29T01:26:07.226Z,0.00
2022-07-29T01:27:07.241Z,0.00
2022-07-29T01:28:07.209Z,0.00
2022-07-29T01:29:08.279Z,0.00
2022-07-29T01:30:07.190Z,0.00
2022-07-29T01:31:07.235Z,0.00
2022-07-29T01:32:07.254Z,0.00
2022-07-29T01:33:07.162Z,0.00
2022-07-29T01:34:07.169Z,0.00
2022-07-29T01:35:07.270Z,0.00
2022-07-29T01:36:07.145Z,0.00
2022-07-29T01:37:07.162Z,0.00
2022-07-29T01:38:07.121Z,0.00
2022-07-29T01:39:07.121Z,0.00
2022-07-29T01:40:07.109Z,0.00
2022-07-29T01:41:07.102Z,0.00
2022-07-29T01:42:07.145Z,0.00
2022-07-29T01:43:07.099Z,0.00
2022-07-29T01:44:07.083Z,0.00
2022-07-29T01:45:07.068Z,0.00
2022-07-29T01:46:07.103Z,0.00
2022-07-29T01:47:07.085Z,0.00
2022-07-29T01:48:07.047Z,0.00
2022-07-29T01:49:07.085Z,0.00
2022-07-29T01:50:07.040Z,0.00
2022-07-29T01:51:07.026Z,0.00
2022-07-29T01:52:07.041Z,0.00
2022-07-29T01:53:07.010Z,0.00
2022-07-29T01:54:06.995Z,0.00
2022-07-29T01:55:07.032Z,0.00
2022-07-29T01:56:06.987Z,0.00
2022-07-29T01:57:07.005Z,0.00
2022-07-29T01:58:06.994Z,0.00
2022-07-29T01:59:06.966Z,0.00
2022-07-29T02:00:06.964Z,0.00
2022-07-29T02:01:06.954Z,0.00
2022-07-29T02:02:07.043Z,0.00
2022-07-29T02:03:06.935Z,0.00
2022-07-29T02:04:06.936Z,0.00
2022-07-29T02:05:06.978Z,0.00
2022-07-29T02:06:06.914Z,0.00
2022-07-29T02:07:06.936Z,0.00
2022-07-29T02:08:06.901Z,0.00
2022-07-29T02:09:06.889Z,0.00
2022-07-29T02:10:06.884Z,0.00
2022-07-29T02:11:06.878Z,0.00
2022-07-29T02:12:06.898Z,0.00
2022-07-29T02:13:06.863Z,0.00
2022-07-29T02:14:06.855Z,0.00
2022-07-29T02:15:06.846Z,0.00
2022-07-29T02:16:06.909Z,0.00
2022-07-29T02:17:07.064Z,0.00
2022-07-29T02:18:06.821Z,0.00
2022-07-29T02:19:06.817Z,0.00
2022-07-29T02:20:06.805Z,0.00
2022-07-29T02:21:06.825Z,0.00
2022-07-29T02:22:07.818Z,0.00
2022-07-29T02:23:06.780Z,0.00
2022-07-29T02:24:06.777Z,0.00
2022-07-29T02:25:06.764Z,0.00
2022-07-29T02:26:07.761Z,0.00
2022-07-29T02:27:06.784Z,0.00
2022-07-29T02:28:06.752Z,0.00
2022-07-29T02:29:06.738Z,0.00
2022-07-29T02:30:06.733Z,0.00
2022-07-29T02:31:06.763Z,0.00
2022-07-29T02:32:06.750Z,0.00
2022-07-29T02:33:06.705Z,0.00
2022-07-29T02:34:06.707Z,0.00
2022-07-29T02:35:06.692Z,0.00
2022-07-29T02:36:06.695Z,0.00
2022-07-29T02:37:06.705Z,0.00
2022-07-29T02:38:06.676Z,0.00
2022-07-29T02:39:06.671Z,0.00
2022-07-29T02:40:06.669Z,0.00
2022-07-29T02:41:06.654Z,0.00
2022-07-29T02:42:06.673Z,0.00
2022-07-29T02:43:06.639Z,0.00
2022-07-29T02:44:06.634Z,0.00
2022-07-29T02:45:06.621Z,0.00
2022-07-29T02:46:06.637Z,0.00
2022-07-29T02:47:07.632Z,0.00
2022-07-29T02:48:06.602Z,0.00
2022-07-29T02:49:06.651Z,0.00
2022-07-29T02:50:06.585Z,0.00
2022-07-29T02:51:06.582Z,0.00
2022-07-29T02:52:06.596Z,0.00
2022-07-29T02:53:06.562Z,0.00
2022-07-29T02:54:06.555Z,0.00
2022-07-29T02:55:06.553Z,0.00
2022-07-29T02:56:06.534Z,0.00
2022-07-29T02:57:06.561Z,0.00
2022-07-29T02:58:06.526Z,0.00
2022-07-29T02:59:06.525Z,0.00
2022-07-29T03:00:06.507Z,0.00
2022-07-29T03:01:06.622Z,0.00
2022-07-29T03:02:06.562Z,0.00
2022-07-29T03:03:06.489Z,0.00
2022-07-29T03:04:06.485Z,0.00
2022-07-29T03:05:06.519Z,0.00
2022-07-29T03:06:06.455Z,0.00
2022-07-29T03:07:06.475Z,0.00
2022-07-29T03:08:06.447Z,0.00
2022-07-29T03:09:12.043Z,0.00
2022-07-29T03:10:10.868Z,0.00
2022-07-29T03:11:07.417Z,0.00
2022-07-29T03:12:06.441Z,0.00
2022-07-29T03:13:06.412Z,0.00
2022-07-29T03:14:06.397Z,0.00
2022-07-29T03:15:06.392Z,0.00
2022-07-29T03:16:06.430Z,0.00
2022-07-29T03:17:06.400Z,0.00
2022-07-29T03:18:06.369Z,0.00
2022-07-29T03:19:06.359Z,0.00
2022-07-29T03:20:06.347Z,4.00
2022-07-29T03:21:06.338Z,4.00
2022-07-29T03:22:06.360Z,0.00
2022-07-29T03:23:06.326Z,0.00
2022-07-29T03:24:10.308Z,4.00
2022-07-29T03:25:07.310Z,4.00
2022-07-29T03:26:06.298Z,0.00
2022-07-29T03:27:06.331Z,4.00
2022-07-29T03:28:06.289Z,4.00
2022-07-29T03:29:06.274Z,4.00
2022-07-29T03:30:06.269Z,4.00
2022-07-29T03:31:06.296Z,4.00
2022-07-29T03:32:08.043Z,8.00
2022-07-29T03:33:13.219Z,8.00
2022-07-29T03:34:07.236Z,8.00
2022-07-29T03:35:06.228Z,8.00
2022-07-29T03:36:06.229Z,8.00
2022-07-29T03:37:06.236Z,12.00
2022-07-29T03:38:07.205Z,12.00
2022-07-29T03:39:06.200Z,12.00
2022-07-29T03:40:06.187Z,16.00
2022-07-29T03:41:06.180Z,16.00
2022-07-29T03:42:06.202Z,20.00
2022-07-29T03:43:06.171Z,20.00
2022-07-29T03:44:06.159Z,20.00
2022-07-29T03:45:06.153Z,24.00
2022-07-29T03:46:06.180Z,28.00
2022-07-29T03:47:06.164Z,28.00
2022-07-29T03:48:06.130Z,28.00
2022-07-29T03:49:06.179Z,32.00
2022-07-29T03:50:06.113Z,36.00
2022-07-29T03:51:06.107Z,40.00
2022-07-29T03:52:06.130Z,44.00
2022-07-29T03:53:06.086Z,44.00
2022-07-29T03:54:09.924Z,44.00
2022-07-29T03:55:07.073Z,48.00
2022-07-29T03:56:06.062Z,52.00
2022-07-29T03:57:06.049Z,56.00
2022-07-29T03:58:06.084Z,56.00
2022-07-29T03:59:06.039Z,60.00
2022-07-29T04:00:06.036Z,68.00
2022-07-29T04:01:06.019Z,72.00
2022-07-29T04:02:06.064Z,76.00
2022-07-29T04:03:06.112Z,84.00
2022-07-29T04:04:06.995Z,84.00
2022-07-29T04:05:05.993Z,92.00
2022-07-29T04:06:05.986Z,100.00
2022-07-29T04:07:05.984Z,108.00
2022-07-29T04:08:05.985Z,112.00
2022-07-29T04:09:06.962Z,124.00
2022-07-29T04:10:05.963Z,140.00
2022-07-29T04:11:05.947Z,148.00
2022-07-29T04:12:05.946Z,164.00
2022-07-29T04:13:05.955Z,176.00
2022-07-29T04:14:05.916Z,196.00
2022-07-29T04:15:05.911Z,212.00
2022-07-29T04:16:05.939Z,228.00
2022-07-29T04:17:05.895Z,248.00
2022-07-29T04:18:05.909Z,272.00
2022-07-29T04:19:05.941Z,300.00
2022-07-29T04:20:05.873Z,324.00
2022-07-29T04:21:05.871Z,344.00
2022-07-29T04:22:05.859Z,368.00
2022-07-29T04:23:05.874Z,392.00
2022-07-29T04:24:05.845Z,412.00
2022-07-29T04:25:05.845Z,448.00
2022-07-29T04:26:05.825Z,484.00
2022-07-29T04:27:05.823Z,512.00
2022-07-29T04:28:05.838Z,560.00
2022-07-29T04:29:05.811Z,604.00
2022-07-29T04:30:05.791Z,648.00
2022-07-29T04:31:05.846Z,680.00
2022-07-29T04:32:05.799Z,708.00
2022-07-29T04:33:05.799Z,732.00
2022-07-29T04:34:05.769Z,756.00
2022-07-29T04:35:05.765Z,796.00
2022-07-29T04:36:05.752Z,848.00
2022-07-29T04:37:06.747Z,916.00
2022-07-29T04:38:05.763Z,1700.00
2022-07-29T04:39:05.728Z,2364.00
2022-07-29T04:40:05.715Z,920.00
2022-07-29T04:41:05.712Z,2088.00
2022-07-29T04:42:05.696Z,1036.00
2022-07-29T04:43:06.724Z,1288.00
2022-07-29T04:44:05.682Z,2608.00
2022-07-29T04:45:05.686Z,3140.00
2022-07-29T04:46:05.731Z,1168.00
2022-07-29T04:47:05.669Z,1172.00
2022-07-29T04:48:05.680Z,1204.00
2022-07-29T04:49:05.701Z,1240.00
2022-07-29T04:50:05.654Z,1424.00
2022-07-29T04:51:05.635Z,2020.00
2022-07-29T04:52:05.633Z,2732.00
2022-07-29T04:53:05.944Z,4624.00
2022-07-29T04:54:05.609Z,5040.00
2022-07-29T04:55:05.604Z,3504.00
2022-07-29T04:56:05.596Z,1420.00
2022-07-29T04:57:05.586Z,2092.00
2022-07-29T04:58:05.606Z,1528.00
2022-07-29T04:59:05.569Z,1364.00
2022-07-29T05:00:05.564Z,1288.00
2022-07-29T05:01:05.657Z,1292.00
2022-07-29T05:02:05.636Z,1240.00
2022-07-29T05:03:05.666Z,1092.00
2022-07-29T05:04:05.532Z,1040.00
2022-07-29T05:05:06.531Z,952.00
2022-07-29T05:06:05.524Z,844.00
2022-07-29T05:07:05.510Z,768.00
2022-07-29T05:08:05.533Z,716.00
2022-07-29T05:09:05.500Z,680.00
2022-07-29T05:10:05.494Z,652.00
2022-07-29T05:11:11.831Z,632.00
2022-07-29T05:12:06.504Z,616.00
2022-07-29T05:13:05.500Z,612.00
2022-07-29T05:14:05.466Z,604.00
2022-07-29T05:15:05.487Z,600.00
2022-07-29T05:16:05.468Z,592.00
2022-07-29T05:17:05.441Z,592.00
2022-07-29T05:18:05.455Z,592.00
2022-07-29T05:19:05.422Z,592.00
2022-07-29T05:20:05.422Z,584.00
2022-07-29T05:21:05.413Z,584.00
2022-07-29T05:22:05.407Z,580.00
2022-07-29T05:23:05.426Z,576.00
2022-07-29T05:24:05.388Z,576.00
2022-07-29T05:25:09.013Z,572.00
2022-07-29T05:26:06.375Z,564.00
2022-07-29T05:27:05.369Z,560.00
2022-07-29T05:28:05.386Z,552.00
2022-07-29T05:29:05.351Z,552.00
2022-07-29T05:30:05.346Z,556.00
2022-07-29T05:31:05.406Z,556.00
2022-07-29T05:32:05.328Z,552.00
2022-07-29T05:33:05.359Z,548.00
2022-07-29T05:34:05.309Z,536.00
2022-07-29T05:35:05.308Z,528.00
2022-07-29T05:36:05.309Z,524.00
2022-07-29T05:37:05.295Z,520.00
2022-07-29T05:38:05.318Z,524.00
2022-07-29T05:39:05.288Z,524.00
2022-07-29T05:40:05.279Z,528.00
2022-07-29T05:41:05.275Z,536.00
2022-07-29T05:42:05.257Z,540.00
2022-07-29T05:43:05.280Z,548.00
2022-07-29T05:44:05.241Z,580.00
2022-07-29T05:45:05.231Z,620.00
2022-07-29T05:46:05.280Z,656.00
2022-07-29T05:47:05.214Z,672.00
2022-07-29T05:48:05.211Z,664.00
2022-07-29T05:49:05.294Z,652.00
2022-07-29T05:50:05.196Z,648.00
2022-07-29T05:51:05.190Z,636.00
2022-07-29T05:52:05.179Z,628.00
2022-07-29T05:53:19.017Z,620.00
2022-07-29T05:54:06.190Z,616.00
2022-07-29T05:55:05.165Z,612.00
2022-07-29T05:56:05.152Z,612.00
2022-07-29T05:57:05.151Z,612.00
2022-07-29T05:58:05.147Z,620.00
2022-07-29T05:59:05.152Z,628.00
2022-07-29T06:00:06.166Z,636.00
2022-07-29T06:01:05.179Z,640.00
2022-07-29T06:02:05.103Z,636.00
2022-07-29T06:03:05.098Z,644.00
2022-07-29T06:04:05.177Z,652.00
2022-07-29T06:05:05.078Z,664.00
2022-07-29T06:06:06.075Z,676.00
2022-07-29T06:07:05.060Z,688.00
2022-07-29T06:08:05.056Z,708.00
2022-07-29T06:09:12.178Z,732.00
2022-07-29T06:10:06.040Z,760.00
2022-07-29T06:11:05.034Z,796.00
2022-07-29T06:12:05.021Z,840.00
2022-07-29T06:13:05.017Z,892.00
2022-07-29T06:14:05.030Z,940.00
2022-07-29T06:15:05.003Z,1016.00
2022-07-29T06:16:05.025Z,1072.00
2022-07-29T06:17:05.033Z,1132.00
2022-07-29T06:18:04.990Z,1192.00
2022-07-29T06:19:04.987Z,1252.00
2022-07-29T06:20:07.500Z,1312.00
2022-07-29T06:21:04.957Z,1316.00
2022-07-29T06:22:04.946Z,1272.00
2022-07-29T06:23:04.937Z,1220.00
2022-07-29T06:24:04.962Z,1160.00
2022-07-29T06:25:04.925Z,1100.00
2022-07-29T06:26:04.914Z,1032.00
2022-07-29T06:27:04.907Z,968.00
2022-07-29T06:28:04.903Z,920.00
2022-07-29T06:29:04.911Z,872.00
2022-07-29T06:30:05.384Z,832.00
2022-07-29T06:31:05.977Z,792.00
2022-07-29T06:32:04.874Z,752.00
2022-07-29T06:33:04.861Z,716.00
2022-07-29T06:34:04.873Z,684.00
2022-07-29T06:35:37.530Z,652.00
2022-07-29T06:36:06.833Z,632.00
2022-07-29T06:37:04.834Z,608.00
2022-07-29T06:38:12.032Z,592.00
2022-07-29T06:39:05.846Z,580.00
2022-07-29T06:40:04.804Z,576.00
2022-07-29T06:41:04.955Z,576.00
2022-07-29T06:42:04.794Z,572.00
2022-07-29T06:43:04.790Z,564.00
2022-07-29T06:44:04.805Z,560.00
2022-07-29T06:45:09.195Z,552.00
2022-07-29T06:46:05.804Z,548.00
2022-07-29T06:47:04.750Z,552.00
2022-07-29T06:48:04.747Z,548.00
2022-07-29T06:49:04.812Z,548.00
2022-07-29T06:50:04.731Z,552.00
2022-07-29T06:51:04.722Z,552.00
2022-07-29T06:52:04.717Z,548.00
2022-07-29T06:53:04.709Z,552.00
2022-07-29T06:54:04.733Z,548.00
2022-07-29T06:55:04.696Z,548.00
2022-07-29T06:56:04.690Z,552.00
2022-07-29T06:57:04.683Z,552.00
2022-07-29T06:58:04.668Z,556.00
2022-07-29T06:59:04.693Z,556.00
2022-07-29T07:00:04.663Z,564.00
2022-07-29T07:01:04.709Z,572.00
2022-07-29T07:02:04.684Z,584.00
2022-07-29T07:03:04.635Z,592.00
2022-07-29T07:04:04.652Z,600.00
2022-07-29T07:05:04.611Z,608.00
2022-07-29T07:06:04.616Z,612.00
2022-07-29T07:07:04.598Z,608.00
2022-07-29T07:08:04.591Z,608.00
2022-07-29T07:09:04.614Z,604.00
2022-07-29T07:10:04.574Z,604.00
2022-07-29T07:11:04.569Z,604.00
2022-07-29T07:12:04.570Z,604.00
2022-07-29T07:13:04.560Z,596.00
2022-07-29T07:14:04.650Z,592.00
2022-07-29T07:15:04.546Z,592.00
2022-07-29T07:16:04.556Z,596.00
2022-07-29T07:17:04.571Z,596.00
2022-07-29T07:18:04.525Z,596.00
2022-07-29T07:19:36.451Z,600.00
2022-07-29T07:20:04.504Z,600.00
2022-07-29T07:21:04.505Z,604.00
2022-07-29T07:22:04.491Z,600.00
2022-07-29T07:23:04.481Z,592.00
2022-07-29T07:24:04.511Z,576.00
2022-07-29T07:25:04.465Z,556.00
2022-07-29T07:26:04.462Z,536.00
2022-07-29T07:27:04.471Z,516.00
2022-07-29T07:28:04.459Z,496.00
2022-07-29T07:29:04.457Z,480.00
2022-07-29T07:30:04.423Z,468.00
2022-07-29T07:31:04.419Z,456.00
2022-07-29T07:32:04.441Z,444.00
2022-07-29T07:33:04.411Z,440.00
2022-07-29T07:34:04.516Z,436.00
2022-07-29T07:35:04.403Z,436.00
2022-07-29T07:36:04.378Z,444.00
2022-07-29T07:37:04.369Z,448.00
2022-07-29T07:38:04.365Z,456.00
2022-07-29T07:39:04.355Z,468.00
2022-07-29T07:40:04.370Z,484.00
2022-07-29T07:41:04.342Z,488.00
2022-07-29T07:42:04.326Z,504.00
2022-07-29T07:43:04.325Z,508.00
2022-07-29T07:44:04.324Z,520.00
2022-07-29T07:45:13.542Z,540.00
2022-07-29T07:46:06.402Z,564.00
2022-07-29T07:47:12.232Z,584.00
2022-07-29T07:48:05.290Z,604.00
2022-07-29T07:49:04.309Z,628.00
2022-07-29T07:50:04.290Z,660.00
2022-07-29T07:51:04.260Z,700.00
2022-07-29T07:52:04.254Z,740.00
2022-07-29T07:53:04.246Z,792.00
2022-07-29T07:54:04.232Z,848.00
2022-07-29T07:55:04.269Z,900.00
2022-07-29T07:56:12.671Z,948.00
2022-07-29T07:57:06.222Z,992.00
2022-07-29T07:58:04.203Z,1032.00
2022-07-29T07:59:04.204Z,1068.00
2022-07-29T08:00:04.296Z,1116.00
2022-07-29T08:01:04.269Z,1152.00
2022-07-29T08:02:04.253Z,1156.00
2022-07-29T08:03:04.198Z,1156.00
2022-07-29T08:04:05.163Z,1168.00
2022-07-29T08:05:04.197Z,1192.00
2022-07-29T08:06:04.148Z,1208.00
2022-07-29T08:07:04.135Z,1208.00
2022-07-29T08:08:04.127Z,1212.00
2022-07-29T08:09:27.670Z,1208.00
2022-07-29T08:10:06.143Z,1220.00
2022-07-29T08:11:08.737Z,1212.00
2022-07-29T08:12:06.097Z,1180.00
2022-07-29T08:13:04.083Z,1144.00
2022-07-29T08:14:04.085Z,1116.00
2022-07-29T08:15:04.100Z,1108.00
2022-07-29T08:16:04.108Z,1108.00
2022-07-29T08:17:04.086Z,1124.00
2022-07-29T08:18:08.453Z,1132.00
2022-07-29T08:19:05.062Z,1136.00
2022-07-29T08:20:04.061Z,1144.00
2022-07-29T08:21:04.030Z,1156.00
2022-07-29T08:22:04.023Z,1180.00
2022-07-29T08:23:04.012Z,1212.00
2022-07-29T08:24:07.268Z,1220.00
2022-07-29T08:25:05.028Z,1220.00
2022-07-29T08:26:03.990Z,1220.00
2022-07-29T08:27:03.987Z,1204.00
2022-07-29T08:28:03.979Z,1140.00
2022-07-29T08:29:03.968Z,1084.00
2022-07-29T08:30:03.991Z,1056.00
2022-07-29T08:31:03.955Z,1060.00
2022-07-29T08:32:03.979Z,1064.00
2022-07-29T08:33:03.929Z,1060.00
2022-07-29T08:34:04.925Z,1040.00
2022-07-29T08:35:03.959Z,1016.00
2022-07-29T08:36:03.915Z,996.00
2022-07-29T08:37:03.913Z,992.00
2022-07-29T08:38:03.917Z,1004.00
2022-07-29T08:39:03.899Z,1024.00
2022-07-29T08:40:03.917Z,1052.00
2022-07-29T08:41:03.883Z,1092.00
2022-07-29T08:42:03.877Z,1152.00
2022-07-29T08:43:03.883Z,1876.00
2022-07-29T08:44:03.860Z,1200.00
2022-07-29T08:45:03.880Z,1732.00
2022-07-29T08:46:03.885Z,1940.00
2022-07-29T08:47:03.846Z,1656.00
2022-07-29T08:48:03.853Z,1092.00
2022-07-29T08:49:03.886Z,1072.00
2022-07-29T08:50:03.839Z,1064.00
2022-07-29T08:51:04.372Z,1068.00
2022-07-29T08:52:03.799Z,1120.00
2022-07-29T08:53:03.793Z,1200.00
2022-07-29T08:54:03.793Z,1264.00
2022-07-29T08:55:03.807Z,1352.00
2022-07-29T08:56:03.781Z,1456.00
2022-07-29T08:57:03.767Z,1844.00
2022-07-29T08:58:03.758Z,2128.00
2022-07-29T08:59:04.858Z,2160.00
2022-07-29T09:00:08.174Z,1956.00
2022-07-29T09:01:07.732Z,2972.00
2022-07-29T09:02:04.773Z,3128.00
2022-07-29T09:03:03.724Z,3096.00
2022-07-29T09:04:03.778Z,3416.00
2022-07-29T09:05:03.737Z,2800.00
2022-07-29T09:06:03.690Z,2720.00
2022-07-29T09:07:03.690Z,2480.00
2022-07-29T09:08:03.689Z,2552.00
2022-07-29T09:09:03.675Z,2404.00
2022-07-29T09:10:03.701Z,2284.00
2022-07-29T09:11:04.056Z,2184.00
2022-07-29T09:12:03.647Z,2180.00
2022-07-29T09:13:03.639Z,2116.00
2022-07-29T09:14:03.632Z,2304.00
2022-07-29T09:15:03.664Z,1956.00
2022-07-29T09:16:08.893Z,1944.00
2022-07-29T09:17:05.978Z,1880.00
2022-07-29T09:18:03.605Z,1840.00
2022-07-29T09:19:03.598Z,1804.00
2022-07-29T09:20:03.605Z,1768.00
2022-07-29T09:21:03.604Z,1744.00
2022-07-29T09:22:04.160Z,1712.00
2022-07-29T09:23:03.571Z,1680.00
2022-07-29T09:24:03.563Z,1660.00
2022-07-29T09:25:03.551Z,1664.00
2022-07-29T09:26:03.565Z,1664.00
2022-07-29T09:27:03.543Z,1652.00
2022-07-29T09:28:03.539Z,1640.00
2022-07-29T09:29:03.534Z,1628.00
2022-07-29T09:30:03.516Z,1612.00
2022-07-29T09:31:03.551Z,1592.00
2022-07-29T09:32:03.557Z,1568.00
2022-07-29T09:33:03.497Z,1552.00
2022-07-29T09:34:03.483Z,1548.00
2022-07-29T09:35:03.478Z,1540.00
2022-07-29T09:36:03.512Z,1536.00
2022-07-29T09:37:03.470Z,1540.00
2022-07-29T09:38:03.463Z,1544.00
2022-07-29T09:39:03.447Z,1564.00
2022-07-29T09:40:03.435Z,1588.00
2022-07-29T09:41:05.794Z,1616.00
2022-07-29T09:42:03.425Z,1656.00
2022-07-29T09:43:03.427Z,1716.00
2022-07-29T09:44:03.417Z,1936.00
2022-07-29T09:45:03.401Z,3128.00
2022-07-29T09:46:03.426Z,2508.00
2022-07-29T09:47:03.396Z,2464.00
2022-07-29T09:48:03.373Z,3124.00
2022-07-29T09:49:03.467Z,2700.00
2022-07-29T09:50:03.366Z,3060.00
2022-07-29T09:51:03.384Z,2696.00
2022-07-29T09:52:03.376Z,2276.00
2022-07-29T09:53:03.344Z,2468.00
2022-07-29T09:54:03.335Z,2364.00
2022-07-29T09:55:03.337Z,2264.00
2022-07-29T09:56:03.350Z,2292.00
2022-07-29T09:57:03.329Z,2116.00
2022-07-29T09:58:03.319Z,2144.00
2022-07-29T09:59:03.296Z,2136.00
2022-07-29T10:00:03.286Z,2216.00
2022-07-29T10:01:03.347Z,2576.00
2022-07-29T10:02:03.282Z,2328.00
2022-07-29T10:03:03.314Z,2280.00
2022-07-29T10:04:03.260Z,2304.00
2022-07-29T10:05:03.248Z,2304.00
2022-07-29T10:06:03.276Z,2332.00
2022-07-29T10:07:05.185Z,2376.00
2022-07-29T10:08:04.225Z,2504.00
2022-07-29T10:09:03.221Z,2760.00
2022-07-29T10:10:03.226Z,2540.00
2022-07-29T10:11:03.247Z,2648.00
2022-07-29T10:12:03.197Z,2552.00
2022-07-29T10:13:07.980Z,2516.00
2022-07-29T10:14:05.191Z,2504.00
2022-07-29T10:15:03.176Z,2492.00
2022-07-29T10:16:03.286Z,2500.00
2022-07-29T10:17:03.184Z,2528.00
2022-07-29T10:18:03.155Z,2592.00
2022-07-29T10:19:03.151Z,2560.00
2022-07-29T10:20:03.155Z,2512.00
2022-07-29T10:21:03.138Z,2504.00
2022-07-29T10:22:03.517Z,2508.00
2022-07-29T10:23:03.097Z,2488.00
2022-07-29T10:24:04.108Z,2492.00
2022-07-29T10:25:03.093Z,2536.00
2022-07-29T10:26:03.084Z,2476.00
2022-07-29T10:27:03.111Z,2432.00
2022-07-29T10:28:03.071Z,2388.00
2022-07-29T10:29:03.093Z,2336.00
2022-07-29T10:30:03.079Z,2308.00
2022-07-29T10:31:03.086Z,2272.00
2022-07-29T10:32:03.075Z,2248.00
2022-07-29T10:33:03.036Z,2224.00
2022-07-29T10:34:03.028Z,2212.00
2022-07-29T10:35:03.038Z,2196.00
2022-07-29T10:36:03.029Z,2180.00
2022-07-29T10:37:03.052Z,2176.00
2022-07-29T10:38:03.006Z,2164.00
2022-07-29T10:39:03.189Z,2152.00
2022-07-29T10:40:02.982Z,2188.00
2022-07-29T10:41:02.978Z,2140.00
2022-07-29T10:43:03.953Z,2000.00
2022-07-29T10:44:02.951Z,1952.00
2022-07-29T10:45:02.941Z,1920.00
2022-07-29T10:46:02.931Z,1904.00
2022-07-29T10:47:03.043Z,1896.00
2022-07-29T10:48:03.923Z,1888.00
2022-07-29T10:49:03.001Z,1888.00
2022-07-29T10:50:02.907Z,1896.00
2022-07-29T10:51:04.005Z,1912.00
2022-07-29T10:52:03.461Z,1940.00
2022-07-29T10:53:02.886Z,2016.00
2022-07-29T10:54:02.882Z,2460.00
2022-07-29T10:55:03.018Z,2128.00
2022-07-29T10:56:06.508Z,2392.00
2022-07-29T10:57:02.894Z,2480.00
2022-07-29T10:58:02.861Z,2788.00
2022-07-29T10:59:02.879Z,2544.00
2022-07-29T11:00:02.867Z,2324.00
2022-07-29T11:01:02.828Z,2776.00
2022-07-29T11:02:35.315Z,2420.00
2022-07-29T11:03:10.976Z,2776.00
2022-07-29T11:04:03.797Z,3268.00
2022-07-29T11:05:02.787Z,2852.00
2022-07-29T11:06:02.795Z,2764.00
2022-07-29T11:07:04.140Z,2640.00
2022-07-29T11:08:02.782Z,2660.00
2022-07-29T11:09:02.768Z,2548.00
2022-07-29T11:10:02.775Z,2504.00
2022-07-29T11:11:02.743Z,2424.00
2022-07-29T11:12:02.928Z,2452.00
2022-07-29T11:13:02.756Z,2508.00
2022-07-29T11:14:02.718Z,2712.00
2022-07-29T11:15:02.720Z,2968.00
2022-07-29T11:16:02.711Z,3108.00
2022-07-29T11:17:02.733Z,3216.00
2022-07-29T11:18:02.691Z,3208.00
2022-07-29T11:19:02.689Z,3064.00
2022-07-29T11:20:02.705Z,3408.00
2022-07-29T11:21:02.689Z,4108.00
2022-07-29T11:22:02.756Z,4172.00
2022-07-29T11:23:02.682Z,3080.00
2022-07-29T11:24:02.647Z,3004.00
2022-07-29T11:25:02.668Z,2948.00
2022-07-29T11:26:02.658Z,2852.00
2022-07-29T11:27:02.985Z,2684.00
2022-07-29T11:28:02.658Z,3212.00
2022-07-29T11:29:02.626Z,2812.00
2022-07-29T11:30:03.401Z,3048.00
2022-07-29T11:31:02.600Z,2868.00
2022-07-29T11:32:02.593Z,3100.00
2022-07-29T11:33:02.655Z,3164.00
2022-07-29T11:34:05.661Z,4016.00
2022-07-29T11:35:03.566Z,2828.00
2022-07-29T11:36:03.564Z,4024.00
2022-07-29T11:37:03.576Z,3800.00
2022-07-29T11:38:02.569Z,3120.00
2022-07-29T11:39:02.559Z,3560.00
2022-07-29T11:40:02.566Z,3160.00
2022-07-29T11:41:03.524Z,2944.00
2022-07-29T11:42:05.150Z,2784.00
2022-07-29T11:43:07.206Z,2656.00
2022-07-29T11:44:02.500Z,2716.00
2022-07-29T11:45:08.766Z,2648.00
2022-07-29T11:46:03.491Z,2664.00
2022-07-29T11:47:02.480Z,2856.00
2022-07-29T11:48:28.499Z,2652.00
2022-07-29T11:49:04.495Z,2884.00
2022-07-29T11:50:03.456Z,3008.00
2022-07-29T11:51:03.449Z,3052.00
2022-07-29T11:52:03.253Z,3608.00
2022-07-29T11:53:02.465Z,3936.00
2022-07-29T11:54:05.423Z,3088.00
2022-07-29T11:55:09.576Z,3840.00
2022-07-29T11:56:03.784Z,3844.00
2022-07-29T11:57:02.403Z,2920.00
2022-07-29T11:58:03.817Z,3172.00
2022-07-29T11:59:02.389Z,3668.00
2022-07-29T12:00:09.524Z,3732.00
2022-07-29T12:02:32.975Z,3540.00
2022-07-29T12:03:04.450Z,3020.00
2022-07-29T12:04:02.374Z,3672.00
2022-07-29T12:05:02.349Z,3456.00
2022-07-29T12:06:03.351Z,3588.00
2022-07-29T12:07:03.725Z,3784.00
2022-07-29T12:08:02.365Z,3756.00
2022-07-29T12:09:02.359Z,3420.00
2022-07-29T12:10:02.312Z,3536.00
2022-07-29T12:11:02.301Z,3012.00
2022-07-29T12:12:05.446Z,2744.00
2022-07-29T12:13:03.319Z,2748.00
2022-07-29T12:14:02.288Z,2428.00
2022-07-29T12:15:02.309Z,2280.00
2022-07-29T12:16:02.437Z,2660.00
2022-07-29T12:17:02.281Z,2856.00
2022-07-29T12:18:04.011Z,3216.00
2022-07-29T12:19:03.235Z,2808.00
2022-07-29T12:20:02.542Z,2632.00
2022-07-29T12:21:03.129Z,3012.00
2022-07-29T12:22:02.586Z,2816.00
2022-07-29T12:23:02.240Z,3016.00
2022-07-29T12:24:08.965Z,3024.00
2022-07-29T12:25:31.975Z,3404.00
2022-07-29T12:26:03.190Z,3348.00
2022-07-29T12:27:02.456Z,3296.00
2022-07-29T12:28:02.215Z,2972.00
2022-07-29T12:29:02.425Z,2836.00
2022-07-29T12:30:02.152Z,3064.00
2022-07-29T12:31:02.194Z,3392.00
2022-07-29T12:32:02.451Z,3288.00
2022-07-29T12:33:02.130Z,3392.00
2022-07-29T12:34:02.156Z,3384.00
2022-07-29T12:35:02.110Z,3312.00